createdAt,value
2023-09-11T00:00:45.349Z,72.69
2023-09-11T00:01:45.292Z,72.39
2023-09-11T00:02:45.282Z,72.59
2023-09-11T00:03:45.283Z,72.49
2023-09-11T00:04:45.210Z,72.49
2023-09-11T00:05:54.817Z,72.49
2023-09-11T00:06:46.231Z,72.59
2023-09-11T00:07:45.195Z,72.59
2023-09-11T00:08:45.214Z,72.49
2023-09-11T00:09:45.172Z,72.82
2023-09-11T00:10:45.162Z,73.02
2023-09-11T00:11:45.339Z,72.72
2023-09-11T00:12:45.140Z,72.52
2023-09-11T00:13:45.119Z,72.52
2023-09-11T00:14:45.127Z,72.62
2023-09-11T00:15:45.096Z,72.62
2023-09-11T00:16:45.138Z,72.82
2023-09-11T00:17:45.124Z,73.02
2023-09-11T00:18:45.451Z,73.02
2023-09-11T00:19:45.061Z,72.78
2023-09-11T00:20:45.106Z,72.78
2023-09-11T00:21:45.024Z,72.92
2023-09-11T00:22:45.012Z,73.22
2023-09-11T00:23:45.043Z,73.32
2023-09-11T00:24:45.104Z,73.42
2023-09-11T00:25:44.976Z,73.22
2023-09-11T00:26:45.051Z,72.92
2023-09-11T00:27:44.965Z,72.82
2023-09-11T00:28:44.957Z,72.92
2023-09-11T00:29:44.973Z,72.62
2023-09-11T00:30:45.039Z,73.02
2023-09-11T00:31:44.930Z,72.92
2023-09-11T00:32:44.983Z,73.02
2023-09-11T00:33:44.966Z,73.12
2023-09-11T00:34:44.877Z,73.32
2023-09-11T00:35:45.003Z,73.32
2023-09-11T00:36:44.935Z,73.32
2023-09-11T00:37:44.900Z,73.22
2023-09-11T00:38:44.878Z,73.12
2023-09-11T00:39:44.823Z,73.36
2023-09-11T00:40:44.822Z,73.36
2023-09-11T00:41:44.940Z,73.86
2023-09-11T00:42:44.879Z,73.86
2023-09-11T00:43:44.813Z,73.96
2023-09-11T00:44:44.818Z,73.75
2023-09-11T00:45:44.781Z,73.66
2023-09-11T00:46:44.936Z,73.66
2023-09-11T00:47:44.808Z,73.56
2023-09-11T00:48:44.770Z,73.66
2023-09-11T00:49:44.697Z,73.56
2023-09-11T00:50:44.696Z,74.09
2023-09-11T00:51:44.682Z,74.09
2023-09-11T00:52:44.661Z,73.96
2023-09-11T00:53:44.791Z,73.86
2023-09-11T00:54:44.688Z,73.86
2023-09-11T00:55:44.621Z,73.75
2023-09-11T00:56:44.646Z,73.56
2023-09-11T00:57:44.632Z,73.66
2023-09-11T00:58:44.590Z,73.56
2023-09-11T00:59:44.730Z,73.66
2023-09-11T01:00:44.578Z,73.99
2023-09-11T01:01:44.572Z,73.79
2023-09-11T01:02:44.647Z,73.79
2023-09-11T01:03:44.609Z,73.99
2023-09-11T01:04:44.517Z,74.19
2023-09-11T01:05:44.543Z,74.39
2023-09-11T01:06:44.510Z,74.63
2023-09-11T01:07:44.488Z,74.49
2023-09-11T01:08:44.626Z,73.99
2023-09-11T01:09:44.526Z,73.79
2023-09-11T01:10:44.478Z,73.79
2023-09-11T01:11:44.542Z,73.69
2023-09-11T01:12:44.437Z,74.33
2023-09-11T01:13:44.430Z,74.22
2023-09-11T01:14:44.493Z,75.02
2023-09-11T01:15:44.388Z,74.43
2023-09-11T01:16:44.435Z,74.43
2023-09-11T01:17:44.413Z,74.43
2023-09-11T01:18:44.406Z,74.53
2023-09-11T01:19:44.444Z,74.63
2023-09-11T01:20:44.352Z,74.83
2023-09-11T01:21:44.314Z,74.73
2023-09-11T01:22:44.341Z,74.73
2023-09-11T01:23:44.400Z,74.83
2023-09-11T01:24:44.314Z,74.83
2023-09-11T01:25:44.272Z,74.63
2023-09-11T01:26:44.312Z,74.93
2023-09-11T01:27:44.256Z,74.93
2023-09-11T01:28:44.258Z,74.49
2023-09-11T01:29:44.321Z,74.39
2023-09-11T01:30:44.268Z,74.29
2023-09-11T01:31:44.209Z,74.39
2023-09-11T01:32:44.360Z,74.53
2023-09-11T01:33:44.263Z,75.13
2023-09-11T01:34:44.178Z,75.37
2023-09-11T01:35:44.194Z,75.26
2023-09-11T01:36:44.165Z,75.56
2023-09-11T01:37:44.138Z,75.60
2023-09-11T01:38:44.235Z,76.40
2023-09-11T01:39:44.111Z,76.10
2023-09-11T01:40:44.111Z,76.70
2023-09-11T01:41:44.151Z,77.44
2023-09-11T01:42:44.093Z,77.20
2023-09-11T01:43:44.128Z,76.50
2023-09-11T01:44:44.129Z,75.96
2023-09-11T01:45:44.137Z,75.80
2023-09-11T01:46:44.033Z,75.87
2023-09-11T01:47:44.129Z,75.87
2023-09-11T01:48:44.403Z,75.56
2023-09-11T01:49:44.103Z,76.26
2023-09-11T01:50:44.064Z,75.56
2023-09-11T01:51:43.984Z,75.13
2023-09-11T01:52:43.963Z,75.16
2023-09-11T01:53:44.089Z,75.46
2023-09-11T01:54:43.953Z,76.00
2023-09-11T01:55:43.967Z,76.70
2023-09-11T01:56:43.993Z,76.60
2023-09-11T01:57:43.907Z,77.34
2023-09-11T01:58:44.190Z,77.04
2023-09-11T01:59:44.001Z,77.04
2023-09-11T02:00:43.976Z,76.70
2023-09-11T02:01:44.010Z,75.87
2023-09-11T02:02:44.367Z,75.46
2023-09-11T02:03:43.982Z,75.67
2023-09-11T02:04:43.888Z,75.76
2023-09-11T02:05:43.855Z,75.56
2023-09-11T02:06:43.820Z,75.26
2023-09-11T02:07:43.814Z,75.67
2023-09-11T02:08:44.144Z,75.67
2023-09-11T02:09:43.811Z,75.76
2023-09-11T02:10:43.877Z,75.56
2023-09-11T02:11:43.768Z,75.56
2023-09-11T02:12:43.743Z,76.60
2023-09-11T02:13:43.771Z,76.40
2023-09-11T02:14:43.727Z,76.30
2023-09-11T02:15:43.753Z,76.20
2023-09-11T02:16:43.715Z,76.50
2023-09-11T02:17:43.746Z,76.70
2023-09-11T02:18:43.990Z,76.90
2023-09-11T02:19:43.689Z,76.20
2023-09-11T02:20:43.675Z,76.00
2023-09-11T02:21:43.660Z,76.30
2023-09-11T02:22:43.619Z,76.50
2023-09-11T02:23:43.637Z,76.17
2023-09-11T02:24:43.609Z,76.20
2023-09-11T02:25:43.611Z,76.50
2023-09-11T02:26:43.638Z,76.30
2023-09-11T02:27:43.722Z,76.20
2023-09-11T02:28:43.688Z,76.20
2023-09-11T02:29:43.588Z,75.80
2023-09-11T02:30:43.557Z,75.46
2023-09-11T02:31:43.583Z,75.56
2023-09-11T02:32:43.685Z,75.06
2023-09-11T02:33:43.517Z,75.46
2023-09-11T02:34:43.536Z,75.90
2023-09-11T02:35:43.526Z,76.30
2023-09-11T02:36:43.476Z,76.54
2023-09-11T02:37:43.806Z,76.20
2023-09-11T02:38:43.794Z,76.20
2023-09-11T02:39:43.497Z,76.00
2023-09-11T02:40:43.711Z,75.90
2023-09-11T02:41:43.454Z,75.80
2023-09-11T02:42:44.185Z,75.70
2023-09-11T02:43:43.918Z,75.80
2023-09-11T02:44:43.434Z,76.10
2023-09-11T02:45:43.489Z,75.60
2023-09-11T02:46:43.437Z,75.80
2023-09-11T02:47:43.494Z,75.56
2023-09-11T02:48:43.642Z,75.56
2023-09-11T02:49:43.315Z,75.90
2023-09-11T02:50:43.318Z,75.90
2023-09-11T02:51:43.294Z,76.24
2023-09-11T02:52:43.308Z,76.30
2023-09-11T02:53:43.307Z,76.20
2023-09-11T02:54:43.285Z,76.00
2023-09-11T02:55:43.232Z,75.90
2023-09-11T02:56:43.289Z,75.90
2023-09-11T02:57:43.260Z,75.90
2023-09-11T02:58:43.644Z,76.20
2023-09-11T02:59:43.226Z,76.00
2023-09-11T03:00:43.242Z,75.37
2023-09-11T03:01:43.191Z,75.46
2023-09-11T03:02:43.211Z,75.26
2023-09-11T03:03:43.153Z,75.37
2023-09-11T03:04:43.143Z,75.26
2023-09-11T03:05:43.206Z,75.06
2023-09-11T03:06:43.149Z,74.96
2023-09-11T03:07:43.102Z,74.87
2023-09-11T03:08:43.370Z,74.76
2023-09-11T03:09:43.163Z,74.87
2023-09-11T03:10:43.099Z,75.10
2023-09-11T03:11:43.143Z,75.00
2023-09-11T03:12:43.095Z,75.40
2023-09-11T03:13:43.046Z,75.40
2023-09-11T03:14:43.068Z,75.30
2023-09-11T03:15:43.076Z,75.10
2023-09-11T03:16:43.020Z,75.20
2023-09-11T03:17:43.078Z,75.40
2023-09-11T03:18:43.297Z,75.80
2023-09-11T03:19:42.988Z,75.50
2023-09-11T03:20:42.967Z,75.50
2023-09-11T03:21:42.982Z,75.60
2023-09-11T03:22:42.924Z,75.70
2023-09-11T03:23:43.006Z,75.60
2023-09-11T03:24:42.943Z,75.60
2023-09-11T03:25:42.885Z,75.50
2023-09-11T03:26:42.961Z,76.04
2023-09-11T03:27:43.177Z,76.34
2023-09-11T03:28:43.148Z,76.87
2023-09-11T03:29:42.913Z,76.98
2023-09-11T03:30:42.849Z,77.28
2023-09-11T03:31:42.815Z,77.17
2023-09-11T03:32:42.932Z,77.08
2023-09-11T03:33:42.980Z,77.17
2023-09-11T03:34:42.776Z,77.08
2023-09-11T03:35:42.814Z,77.51
2023-09-11T03:36:42.853Z,77.81
2023-09-11T03:37:42.758Z,77.91
2023-09-11T03:38:43.026Z,77.91
2023-09-11T03:39:42.733Z,77.72
2023-09-11T03:40:42.748Z,77.41
2023-09-11T03:41:42.736Z,77.81
2023-09-11T03:42:42.737Z,77.61
2023-09-11T03:43:42.723Z,77.17
2023-09-11T03:44:42.730Z,76.57
2023-09-11T03:45:42.648Z,76.87
2023-09-11T03:46:42.712Z,77.21
2023-09-11T03:47:42.685Z,76.87
2023-09-11T03:48:43.082Z,76.98
2023-09-11T03:49:42.610Z,76.67
2023-09-11T03:50:42.629Z,76.57
2023-09-11T03:51:42.586Z,76.61
2023-09-11T03:52:42.600Z,76.78
2023-09-11T03:53:42.637Z,76.61
2023-09-11T03:54:42.570Z,77.25
2023-09-11T03:55:42.542Z,77.75
2023-09-11T03:56:42.566Z,77.21
2023-09-11T03:57:42.574Z,77.11
2023-09-11T03:58:42.825Z,76.81
2023-09-11T03:59:42.566Z,76.91
2023-09-11T04:00:42.543Z,77.21
2023-09-11T04:01:42.476Z,77.11
2023-09-11T04:02:42.568Z,77.01
2023-09-11T04:03:42.680Z,76.91
2023-09-11T04:04:42.508Z,76.91
2023-09-11T04:05:42.476Z,76.91
2023-09-11T04:06:42.429Z,76.91
2023-09-11T04:07:42.431Z,77.65
2023-09-11T04:08:42.448Z,77.65
2023-09-11T04:09:42.390Z,78.39
2023-09-11T04:10:42.393Z,78.15
2023-09-11T04:11:42.462Z,77.85
2023-09-11T04:12:42.364Z,77.85
2023-09-11T04:13:42.345Z,77.41
2023-09-11T04:14:42.361Z,77.11
2023-09-11T04:15:42.319Z,76.81
2023-09-11T04:16:42.338Z,76.81
2023-09-11T04:17:42.382Z,77.55
2023-09-11T04:18:42.509Z,77.35
2023-09-11T04:19:42.301Z,77.65
2023-09-11T04:20:42.308Z,77.45
2023-09-11T04:21:42.241Z,77.55
2023-09-11T04:22:42.320Z,77.95
2023-09-11T04:23:42.291Z,77.85
2023-09-11T04:24:42.222Z,77.85
2023-09-11T04:25:42.201Z,77.75
2023-09-11T04:26:42.197Z,77.35
2023-09-11T04:27:43.410Z,77.35
2023-09-11T04:28:42.412Z,77.05
2023-09-11T04:29:42.173Z,77.11
2023-09-11T04:30:42.154Z,76.91
2023-09-11T04:31:42.127Z,77.05
2023-09-11T04:32:42.187Z,77.15
2023-09-11T04:33:42.246Z,77.35
2023-09-11T04:34:42.121Z,77.25
2023-09-11T04:35:42.121Z,77.45
2023-09-11T04:36:42.108Z,77.45
2023-09-11T04:37:42.112Z,77.25
2023-09-11T04:38:42.287Z,77.25
2023-09-11T04:39:42.127Z,77.35
2023-09-11T04:40:42.035Z,77.69
2023-09-11T04:41:42.140Z,77.59
2023-09-11T04:42:42.023Z,77.55
2023-09-11T04:43:41.990Z,77.35
2023-09-11T04:44:42.192Z,77.45
2023-09-11T04:45:41.990Z,77.99
2023-09-11T04:46:41.998Z,77.79
2023-09-11T04:47:42.000Z,77.69
2023-09-11T04:48:42.274Z,77.69
2023-09-11T04:49:41.994Z,77.69
2023-09-11T04:50:41.959Z,78.33
2023-09-11T04:51:41.933Z,78.79
2023-09-11T04:52:41.877Z,78.49
2023-09-11T04:53:41.916Z,78.69
2023-09-11T04:54:41.937Z,78.89
2023-09-11T04:55:41.845Z,78.49
2023-09-11T04:56:41.855Z,78.09
2023-09-11T04:57:41.833Z,77.99
2023-09-11T04:58:42.011Z,78.49
2023-09-11T04:59:42.260Z,78.79
2023-09-11T05:00:41.798Z,78.69
2023-09-11T05:01:41.849Z,78.99
2023-09-11T05:02:41.854Z,78.39
2023-09-11T05:03:41.860Z,78.19
2023-09-11T05:04:41.922Z,78.15
2023-09-11T05:05:41.794Z,77.75
2023-09-11T05:06:41.729Z,77.35
2023-09-11T05:07:41.712Z,77.41
2023-09-11T05:09:02.155Z,77.15
2023-09-11T05:09:42.784Z,77.11
2023-09-11T05:10:41.794Z,77.01
2023-09-11T05:11:41.706Z,77.01
2023-09-11T05:12:41.727Z,76.81
2023-09-11T05:13:41.652Z,76.51
2023-09-11T05:14:43.673Z,76.41
2023-09-11T05:15:41.639Z,76.61
2023-09-11T05:16:41.622Z,76.91
2023-09-11T05:17:41.620Z,77.15
2023-09-11T05:18:41.947Z,77.35
2023-09-11T05:19:41.588Z,77.65
2023-09-11T05:20:41.628Z,77.75
2023-09-11T05:21:41.574Z,78.05
2023-09-11T05:22:41.626Z,77.85
2023-09-11T05:23:41.603Z,77.75
2023-09-11T05:24:41.543Z,77.75
2023-09-11T05:25:41.490Z,77.41
2023-09-11T05:26:41.565Z,77.31
2023-09-11T05:27:41.457Z,77.51
2023-09-11T05:28:41.777Z,78.55
2023-09-11T05:29:41.452Z,78.25
2023-09-11T05:30:41.475Z,78.66
2023-09-11T05:31:41.521Z,78.96
2023-09-11T05:32:41.439Z,79.05
2023-09-11T05:33:41.438Z,78.55
2023-09-11T05:34:41.397Z,79.39
2023-09-11T05:35:41.384Z,79.05
2023-09-11T05:36:41.371Z,78.31
2023-09-11T05:37:41.345Z,78.02
2023-09-11T05:38:41.634Z,77.61
2023-09-11T05:39:41.363Z,77.61
2023-09-11T05:40:41.318Z,77.17
2023-09-11T05:41:41.345Z,77.08
2023-09-11T05:42:41.300Z,77.08
2023-09-11T05:43:41.287Z,77.72
2023-09-11T05:44:41.356Z,77.48
2023-09-11T05:45:41.287Z,78.11
2023-09-11T05:46:41.239Z,78.85
2023-09-11T05:47:41.400Z,78.42
2023-09-11T05:48:41.618Z,77.87
2023-09-11T05:49:41.217Z,78.02
2023-09-11T05:50:41.230Z,77.87
2023-09-11T05:51:41.192Z,77.37
2023-09-11T05:52:41.185Z,77.17
2023-09-11T05:53:41.250Z,77.48
2023-09-11T05:54:41.164Z,77.58
2023-09-11T05:55:41.160Z,77.37
2023-09-11T05:56:41.164Z,77.48
2023-09-11T05:57:41.115Z,77.78
2023-09-11T05:58:41.339Z,77.87
2023-09-11T05:59:41.155Z,77.74
2023-09-11T06:00:41.086Z,77.44
2023-09-11T06:01:41.096Z,76.80
2023-09-11T06:02:41.150Z,77.00
2023-09-11T06:03:41.193Z,76.40
2023-09-11T06:04:41.074Z,76.37
2023-09-11T06:05:41.189Z,76.17
2023-09-11T06:06:41.013Z,76.26
2023-09-11T06:07:41.040Z,76.37
2023-09-11T06:08:41.218Z,76.67
2023-09-11T06:09:40.973Z,76.87
2023-09-11T06:10:41.096Z,76.26
2023-09-11T06:11:41.140Z,76.06
2023-09-11T06:12:41.083Z,76.03
2023-09-11T06:13:40.932Z,75.93
2023-09-11T06:14:40.949Z,75.83
2023-09-11T06:15:40.944Z,75.93
2023-09-11T06:16:40.986Z,76.43
2023-09-11T06:17:45.226Z,75.83
2023-09-11T06:18:41.389Z,75.73
2023-09-11T06:19:41.001Z,75.29
2023-09-11T06:20:41.165Z,75.26
2023-09-11T06:21:40.992Z,74.66
2023-09-11T06:22:40.933Z,75.29
2023-09-11T06:23:40.964Z,74.96
2023-09-11T06:24:40.898Z,74.16
2023-09-11T06:25:40.907Z,75.09
2023-09-11T06:26:40.996Z,75.26
2023-09-11T06:27:40.874Z,74.46
2023-09-11T06:28:41.083Z,74.02
2023-09-11T06:29:40.827Z,74.12
2023-09-11T06:30:40.869Z,73.39
2023-09-11T06:31:40.781Z,73.79
2023-09-11T06:32:40.832Z,73.58
2023-09-11T06:33:40.906Z,73.19
2023-09-11T06:34:40.789Z,73.25
2023-09-11T06:35:40.720Z,72.85
2023-09-11T06:36:40.669Z,73.58
2023-09-11T06:37:40.704Z,73.45
2023-09-11T06:38:41.031Z,72.95
2023-09-11T06:39:40.670Z,73.35
2023-09-11T06:40:40.685Z,72.85
2023-09-11T06:41:40.689Z,73.75
2023-09-11T06:42:40.598Z,73.22
2023-09-11T06:43:40.640Z,72.49
2023-09-11T06:44:40.653Z,72.68
2023-09-11T06:45:40.634Z,72.38
2023-09-11T06:46:40.596Z,72.05
2023-09-11T06:47:40.594Z,72.65
2023-09-11T06:48:41.206Z,71.22
2023-09-11T06:49:40.563Z,70.62
2023-09-11T06:50:40.542Z,71.55
2023-09-11T06:51:40.531Z,71.45
2023-09-11T06:52:40.501Z,71.75
2023-09-11T06:53:40.561Z,72.38
2023-09-11T06:54:40.528Z,72.38
2023-09-11T06:55:40.440Z,72.05
2023-09-11T06:56:40.520Z,72.38
2023-09-11T06:57:40.459Z,72.92
2023-09-11T06:58:40.720Z,73.65
2023-09-11T06:59:40.574Z,73.95
2023-09-11T07:00:40.405Z,74.05
2023-09-11T07:01:40.513Z,73.38
2023-09-11T07:02:40.528Z,72.78
2023-09-11T07:03:40.552Z,72.98
2023-09-11T07:04:40.372Z,72.58
2023-09-11T07:05:40.400Z,72.65
2023-09-11T07:06:40.331Z,72.19
2023-09-11T07:07:40.376Z,72.45
2023-09-11T07:08:40.743Z,71.62
2023-09-11T07:09:40.540Z,71.28
2023-09-11T07:10:41.805Z,70.85
2023-09-11T07:11:40.341Z,70.03
2023-09-11T07:12:40.298Z,68.93
2023-09-11T07:13:40.248Z,69.79
2023-09-11T07:14:40.294Z,68.86
2023-09-11T07:15:40.341Z,68.37
2023-09-11T07:16:40.256Z,67.77
2023-09-11T07:17:40.236Z,67.44
2023-09-11T07:18:41.926Z,67.83
2023-09-11T07:19:40.166Z,67.21
2023-09-11T07:20:40.192Z,67.01
2023-09-11T07:21:40.138Z,66.68
2023-09-11T07:22:40.126Z,67.18
2023-09-11T07:23:40.161Z,66.88
2023-09-11T07:24:40.204Z,66.35
2023-09-11T07:25:40.092Z,66.22
2023-09-11T07:26:40.200Z,66.05
2023-09-11T07:27:40.166Z,66.05
2023-09-11T07:28:40.275Z,65.82
2023-09-11T07:29:40.098Z,65.82
2023-09-11T07:30:40.048Z,65.72
2023-09-11T07:31:40.078Z,66.91
2023-09-11T07:32:40.123Z,66.02
2023-09-11T07:33:40.164Z,66.61
2023-09-11T07:34:40.032Z,65.89
2023-09-11T07:35:40.026Z,65.20
2023-09-11T07:36:39.972Z,65.00
2023-09-11T07:37:39.994Z,64.17
2023-09-11T07:38:40.195Z,64.44
2023-09-11T07:39:39.952Z,64.67
2023-09-11T07:40:40.058Z,64.77
2023-09-11T07:41:39.935Z,64.97
2023-09-11T07:42:39.941Z,64.87
2023-09-11T07:43:39.913Z,64.47
2023-09-11T07:44:39.926Z,64.70
2023-09-11T07:45:39.855Z,63.75
2023-09-11T07:46:40.169Z,64.47
2023-09-11T07:47:40.048Z,65.09
2023-09-11T07:48:40.212Z,65.17
2023-09-11T07:49:39.853Z,65.36
2023-09-11T07:50:39.865Z,65.03
2023-09-11T07:51:39.833Z,63.65
2023-09-11T07:52:39.787Z,63.75
2023-09-11T07:53:39.875Z,64.57
2023-09-11T07:54:39.758Z,65.00
2023-09-11T07:55:39.802Z,65.59
2023-09-11T07:56:39.761Z,65.17
2023-09-11T07:57:39.754Z,64.81
2023-09-11T07:58:40.139Z,64.70
2023-09-11T07:59:39.773Z,63.62
2023-09-11T08:00:39.749Z,63.52
2023-09-11T08:01:39.711Z,65.23
2023-09-11T08:02:39.728Z,64.61
2023-09-11T08:03:39.880Z,64.47
2023-09-11T08:04:39.708Z,64.34
2023-09-11T08:05:39.761Z,64.74
2023-09-11T08:06:39.666Z,63.82
2023-09-11T08:07:39.657Z,64.41
2023-09-11T08:08:39.896Z,64.70
2023-09-11T08:09:39.612Z,63.98
2023-09-11T08:10:39.617Z,63.26
2023-09-11T08:11:39.610Z,62.34
2023-09-11T08:12:39.559Z,62.90
2023-09-11T08:13:39.567Z,63.20
2023-09-11T08:14:39.623Z,62.84
2023-09-11T08:15:39.534Z,62.14
2023-09-11T08:16:39.566Z,62.44
2023-09-11T08:17:40.226Z,61.69
2023-09-11T08:18:39.815Z,60.97
2023-09-11T08:19:39.472Z,61.56
2023-09-11T08:20:39.551Z,61.62
2023-09-11T08:21:39.474Z,63.79
2023-09-11T08:22:39.481Z,64.38
2023-09-11T08:23:39.437Z,63.92
2023-09-11T08:24:39.453Z,64.42
2023-09-11T08:25:39.413Z,63.92
2023-09-11T08:26:39.472Z,63.62
2023-09-11T08:27:39.392Z,62.31
2023-09-11T08:28:39.733Z,63.30
2023-09-11T08:29:39.406Z,62.55
2023-09-11T08:30:41.857Z,62.48
2023-09-11T08:31:39.338Z,62.12
2023-09-11T08:32:39.453Z,61.98
2023-09-11T08:33:52.648Z,61.66
2023-09-11T08:34:40.289Z,61.13
2023-09-11T08:35:39.298Z,61.50
2023-09-11T08:36:39.271Z,60.71
2023-09-11T08:37:39.294Z,60.09
2023-09-11T08:38:39.608Z,60.09
2023-09-11T08:39:39.228Z,59.01
2023-09-11T08:40:39.242Z,61.37
2023-09-11T08:41:39.259Z,59.01
2023-09-11T08:42:39.205Z,60.29
2023-09-11T08:43:39.188Z,59.60
2023-09-11T08:44:39.295Z,59.38
2023-09-11T08:45:39.232Z,59.57
2023-09-11T08:46:39.209Z,59.50
2023-09-11T08:47:39.211Z,58.91
2023-09-11T08:48:39.534Z,60.61
2023-09-11T08:49:39.210Z,59.20
2023-09-11T08:50:39.130Z,60.25
2023-09-11T08:51:39.201Z,60.35
2023-09-11T08:52:39.099Z,59.60
2023-09-11T08:53:39.197Z,59.34
2023-09-11T08:54:39.065Z,59.25
2023-09-11T08:55:39.078Z,59.05
2023-09-11T08:56:39.212Z,59.89
2023-09-11T08:57:39.072Z,58.48
2023-09-11T08:58:39.347Z,59.11
2023-09-11T08:59:39.110Z,59.63
2023-09-11T09:00:39.005Z,58.84
2023-09-11T09:01:39.008Z,58.54
2023-09-11T09:02:39.100Z,60.09
2023-09-11T09:03:39.162Z,60.58
2023-09-11T09:04:39.128Z,59.33
2023-09-11T09:05:39.002Z,58.61
2023-09-11T09:06:39.004Z,57.87
2023-09-11T09:07:38.954Z,59.15
2023-09-11T09:08:39.529Z,58.16
2023-09-11T09:09:38.926Z,58.56
2023-09-11T09:10:38.884Z,58.06
2023-09-11T09:11:38.965Z,59.22
2023-09-11T09:12:39.069Z,57.64
2023-09-11T09:13:39.167Z,56.76
2023-09-11T09:14:38.921Z,57.28
2023-09-11T09:15:38.893Z,57.94
2023-09-11T09:16:39.162Z,57.94
2023-09-11T09:17:38.854Z,58.72
2023-09-11T09:18:38.909Z,59.67
2023-09-11T09:19:38.876Z,58.09
2023-09-11T09:20:38.836Z,58.65
2023-09-11T09:21:38.800Z,58.48
2023-09-11T09:22:38.803Z,60.33
2023-09-11T09:23:38.914Z,58.72
2023-09-11T09:24:38.823Z,57.42
2023-09-11T09:25:38.722Z,56.77
2023-09-11T09:26:38.803Z,56.26
2023-09-11T09:27:38.746Z,54.46
2023-09-11T09:28:38.681Z,55.37
2023-09-11T09:29:38.709Z,55.96
2023-09-11T09:30:38.713Z,54.27
2023-09-11T09:31:38.815Z,55.27
2023-09-11T09:32:38.764Z,56.55
2023-09-11T09:33:38.728Z,55.30
2023-09-11T09:34:38.622Z,55.47
2023-09-11T09:35:38.660Z,55.62
2023-09-11T09:36:38.623Z,56.14
2023-09-11T09:37:38.575Z,55.75
2023-09-11T09:38:38.605Z,55.75
2023-09-11T09:39:38.561Z,54.71
2023-09-11T09:40:38.596Z,54.71
2023-09-11T09:41:38.613Z,54.57
2023-09-11T09:42:38.643Z,54.83
2023-09-11T09:43:38.857Z,54.52
2023-09-11T09:44:38.588Z,55.86
2023-09-11T09:45:38.528Z,54.75
2023-09-11T09:46:38.550Z,53.67
2023-09-11T09:47:38.605Z,51.91
2023-09-11T09:48:38.659Z,52.99
2023-09-11T09:49:38.468Z,52.15
2023-09-11T09:50:38.484Z,51.17
2023-09-11T09:51:38.495Z,51.83
2023-09-11T09:52:38.458Z,51.93
2023-09-11T09:53:38.478Z,50.98
2023-09-11T09:54:38.434Z,51.54
2023-09-11T09:55:38.384Z,50.66
2023-09-11T09:56:38.383Z,49.46
2023-09-11T09:57:38.338Z,51.51
2023-09-11T09:58:38.324Z,50.24
2023-09-11T09:59:38.361Z,49.38
2023-09-11T10:00:38.320Z,49.75
2023-09-11T10:01:38.414Z,49.55
2023-09-11T10:02:38.440Z,49.46
2023-09-11T10:03:38.414Z,50.27
2023-09-11T10:04:38.291Z,50.56
2023-09-11T10:05:38.305Z,50.24
2023-09-11T10:06:38.248Z,49.19
2023-09-11T10:07:38.258Z,49.85
2023-09-11T10:08:38.275Z,49.16
2023-09-11T10:09:38.211Z,50.56
2023-09-11T10:10:38.333Z,49.46
2023-09-11T10:11:38.339Z,49.26
2023-09-11T10:12:38.234Z,48.94
2023-09-11T10:13:38.205Z,49.24
2023-09-11T10:14:38.267Z,49.14
2023-09-11T10:15:38.253Z,49.53
2023-09-11T10:16:38.257Z,49.73
2023-09-11T10:17:38.182Z,48.85
2023-09-11T10:18:38.171Z,47.87
2023-09-11T10:19:38.095Z,48.63
2023-09-11T10:20:38.147Z,50.29
2023-09-11T10:21:38.126Z,49.70
2023-09-11T10:22:38.098Z,48.99
2023-09-11T10:23:38.101Z,49.41
2023-09-11T10:24:38.103Z,49.29
2023-09-11T10:25:38.044Z,48.68
2023-09-11T10:26:38.050Z,48.02
2023-09-11T10:27:38.029Z,47.72
2023-09-11T10:28:38.006Z,48.77
2023-09-11T10:29:38.153Z,47.75
2023-09-11T10:30:38.022Z,48.50
2023-09-11T10:31:37.991Z,47.82
2023-09-11T10:32:39.101Z,47.21
2023-09-11T10:33:38.037Z,47.43
2023-09-11T10:34:37.936Z,47.45
2023-09-11T10:35:37.951Z,48.97
2023-09-11T10:36:37.943Z,50.46
2023-09-11T10:37:37.904Z,49.87
2023-09-11T10:38:38.039Z,48.19
2023-09-11T10:39:37.907Z,49.55
2023-09-11T10:40:37.876Z,49.65
2023-09-11T10:41:37.901Z,49.63
2023-09-11T10:42:37.863Z,50.02
2023-09-11T10:43:37.989Z,49.38
2023-09-11T10:44:37.992Z,50.54
2023-09-11T10:45:37.857Z,49.24
2023-09-11T10:46:37.886Z,49.31
2023-09-11T10:47:37.867Z,49.63
2023-09-11T10:48:37.897Z,49.95
2023-09-11T10:49:37.838Z,49.95
2023-09-11T10:50:37.846Z,49.90
2023-09-11T10:51:37.749Z,49.24
2023-09-11T10:52:37.730Z,50.22
2023-09-11T10:53:37.744Z,50.10
2023-09-11T10:54:40.075Z,49.65
2023-09-11T10:55:39.156Z,48.21
2023-09-11T10:56:37.933Z,49.07
2023-09-11T10:57:37.743Z,47.07
2023-09-11T10:58:37.660Z,47.53
2023-09-11T10:59:37.708Z,46.39
2023-09-11T11:00:37.635Z,46.89
2023-09-11T11:01:37.671Z,47.19
2023-09-11T11:02:37.865Z,48.07
2023-09-11T11:03:37.754Z,48.26
2023-09-11T11:04:37.606Z,47.77
2023-09-11T11:05:37.622Z,46.19
2023-09-11T11:06:37.589Z,46.89
2023-09-11T11:07:37.568Z,47.72
2023-09-11T11:08:37.703Z,46.55
2023-09-11T11:09:37.591Z,46.23
2023-09-11T11:10:37.553Z,47.41
2023-09-11T11:11:37.575Z,48.16
2023-09-11T11:12:37.538Z,46.31
2023-09-11T11:13:37.511Z,46.23
2023-09-11T11:14:37.498Z,45.65
2023-09-11T11:15:37.552Z,47.04
2023-09-11T11:16:37.508Z,47.09
2023-09-11T11:17:37.514Z,46.21
2023-09-11T11:18:37.546Z,45.09
2023-09-11T11:19:37.500Z,44.38
2023-09-11T11:20:37.471Z,45.02
2023-09-11T11:21:37.397Z,45.58
2023-09-11T11:22:37.384Z,46.04
2023-09-11T11:23:37.441Z,45.05
2023-09-11T11:24:37.371Z,45.83
2023-09-11T11:25:37.363Z,44.46
2023-09-11T11:26:37.362Z,44.95
2023-09-11T11:27:37.334Z,44.97
2023-09-11T11:28:37.315Z,45.09
2023-09-11T11:29:37.478Z,45.00
2023-09-11T11:30:37.400Z,45.44
2023-09-11T11:31:38.184Z,45.32
2023-09-11T11:32:37.404Z,43.95
2023-09-11T11:33:37.323Z,44.76
2023-09-11T11:34:37.309Z,43.49
2023-09-11T11:35:37.275Z,44.07
2023-09-11T11:36:38.460Z,43.51
2023-09-11T11:37:37.240Z,44.09
2023-09-11T11:38:37.354Z,43.82
2023-09-11T11:39:37.218Z,44.04
2023-09-11T11:40:37.257Z,45.00
2023-09-11T11:41:37.300Z,44.51
2023-09-11T11:42:37.189Z,43.59
2023-09-11T11:43:37.189Z,43.08
2023-09-11T11:44:37.206Z,43.29
2023-09-11T11:45:37.155Z,44.37
2023-09-11T11:46:37.201Z,44.07
2023-09-11T11:47:37.190Z,43.57
2023-09-11T11:48:37.175Z,43.27
2023-09-11T11:49:37.117Z,42.38
2023-09-11T11:50:37.088Z,42.86
2023-09-11T11:51:37.051Z,43.27
2023-09-11T11:52:37.082Z,43.39
2023-09-11T11:53:37.168Z,44.95
2023-09-11T11:54:37.053Z,44.37
2023-09-11T11:55:37.024Z,43.61
2023-09-11T11:56:37.107Z,43.98
2023-09-11T11:57:37.021Z,44.37
2023-09-11T11:58:36.975Z,44.68
2023-09-11T11:59:37.024Z,43.59
2023-09-11T12:00:36.977Z,43.78
2023-09-11T12:01:36.941Z,43.57
2023-09-11T12:02:36.997Z,44.27
2023-09-11T12:03:37.036Z,43.61
2023-09-11T12:04:49.139Z,43.99
2023-09-11T12:05:38.011Z,44.09
2023-09-11T12:06:36.902Z,45.00
2023-09-11T12:07:36.903Z,45.36
2023-09-11T12:08:36.959Z,44.70
2023-09-11T12:09:36.852Z,45.90
2023-09-11T12:10:36.829Z,44.51
2023-09-11T12:11:36.861Z,43.32
2023-09-11T12:12:36.815Z,43.24
2023-09-11T12:13:48.892Z,44.21
2023-09-11T12:14:38.339Z,43.46
2023-09-11T12:15:36.834Z,43.24
2023-09-11T12:16:36.918Z,44.92
2023-09-11T12:17:36.846Z,44.38
2023-09-11T12:18:36.879Z,43.73
2023-09-11T12:19:36.800Z,44.12
2023-09-11T12:20:36.787Z,44.21
2023-09-11T12:21:36.725Z,44.34
2023-09-11T12:22:36.744Z,45.14
2023-09-11T12:23:36.764Z,44.55
2023-09-11T12:24:36.741Z,44.34
2023-09-11T12:25:36.700Z,44.73
2023-09-11T12:26:36.784Z,44.41
2023-09-11T12:27:36.662Z,44.31
2023-09-11T12:28:36.773Z,44.29
2023-09-11T12:29:36.715Z,43.41
2023-09-11T12:30:36.608Z,42.02
2023-09-11T12:31:36.636Z,42.22
2023-09-11T12:32:36.677Z,42.63
2023-09-11T12:33:36.719Z,42.63
2023-09-11T12:34:36.612Z,43.14
2023-09-11T12:35:36.601Z,44.29
2023-09-11T12:36:36.552Z,43.02
2023-09-11T12:37:36.606Z,44.02
2023-09-11T12:38:36.715Z,45.70
2023-09-11T12:39:36.555Z,43.53
2023-09-11T12:40:36.649Z,43.80
2023-09-11T12:41:36.608Z,42.41
2023-09-11T12:42:36.493Z,43.19
2023-09-11T12:43:36.502Z,44.09
2023-09-11T12:44:36.477Z,44.09
2023-09-11T12:45:36.538Z,43.32
2023-09-11T12:46:36.500Z,43.39
2023-09-11T12:47:37.230Z,43.61
2023-09-11T12:48:36.584Z,44.58
2023-09-11T12:49:36.388Z,43.14
2023-09-11T12:50:36.521Z,43.49
2023-09-11T12:51:36.403Z,43.22
2023-09-11T12:52:36.566Z,44.12